sensor_id;sensor_type;location;lat;lon;timestamp;P1;durP1;ratioP1;P2;durP2;ratioP2
47481;SDS011;33219;47.410;9.730;2023-02-24T00:01:21;7.67;;;4.22;;
47481;SDS011;33219;47.410;9.730;2023-02-24T00:03:58;8.50;;;3.72;;
47481;SDS011;33219;47.410;9.730;2023-02-24T00:06:24;10.15;;;4.60;;
47481;SDS011;33219;47.410;9.730;2023-02-24T00:08:54;9.63;;;4.50;;
47481;SDS011;33219;47.410;9.730;2023-02-24T00:11:22;9.10;;;4.53;;
47481;SDS011;33219;47.410;9.730;2023-02-24T00:13:50;12.63;;;5.00;;
47481;SDS011;33219;47.410;9.730;2023-02-24T00:16:17;8.98;;;5.10;;
47481;SDS011;33219;47.410;9.730;2023-02-24T00:18:45;10.23;;;4.60;;
47481;SDS011;33219;47.410;9.730;2023-02-24T00:21:14;10.72;;;5.17;;
47481;SDS011;33219;47.410;9.730;2023-02-24T00:23:43;10.80;;;4.92;;
47481;SDS011;33219;47.410;9.730;2023-02-24T00:26:13;8.98;;;5.30;;
47481;SDS011;33219;47.410;9.730;2023-02-24T00:28:42;8.65;;;5.05;;
47481;SDS011;33219;47.410;9.730;2023-02-24T00:31:11;8.47;;;5.20;;
47481;SDS011;33219;47.410;9.730;2023-02-24T00:33:41;10.00;;;4.87;;
47481;SDS011;33219;47.410;9.730;2023-02-24T00:36:11;12.20;;;5.03;;
47481;SDS011;33219;47.410;9.730;2023-02-24T00:38:41;8.38;;;4.37;;
47481;SDS011;33219;47.410;9.730;2023-02-24T00:41:11;14.90;;;5.15;;
47481;SDS011;33219;47.410;9.730;2023-02-24T00:43:40;9.73;;;4.28;;
47481;SDS011;33219;47.410;9.730;2023-02-24T00:46:11;7.10;;;4.37;;
47481;SDS011;33219;47.410;9.730;2023-02-24T00:48:44;13.07;;;4.77;;
47481;SDS011;33219;47.410;9.730;2023-02-24T00:51:14;8.88;;;4.53;;
47481;SDS011;33219;47.410;9.730;2023-02-24T00:53:45;8.73;;;5.17;;
47481;SDS011;33219;47.410;9.730;2023-02-24T00:56:12;8.90;;;4.53;;
47481;SDS011;33219;47.410;9.730;2023-02-24T00:58:43;9.77;;;5.03;;
47481;SDS011;33219;47.410;9.730;2023-02-24T01:01:11;9.78;;;4.85;;
47481;SDS011;33219;47.410;9.730;2023-02-24T01:03:47;9.87;;;4.43;;
47481;SDS011;33219;47.410;9.730;2023-02-24T01:06:11;8.60;;;4.20;;
47481;SDS011;33219;47.410;9.730;2023-02-24T01:08:39;8.07;;;4.30;;
47481;SDS011;33219;47.410;9.730;2023-02-24T01:11:12;10.70;;;4.87;;
47481;SDS011;33219;47.410;9.730;2023-02-24T01:13:58;9.83;;;4.58;;
47481;SDS011;33219;47.410;9.730;2023-02-24T01:16:26;8.30;;;4.30;;
47481;SDS011;33219;47.410;9.730;2023-02-24T01:18:53;10.53;;;5.30;;
47481;SDS011;33219;47.410;9.730;2023-02-24T01:21:21;11.37;;;5.97;;
47481;SDS011;33219;47.410;9.730;2023-02-24T01:23:49;12.43;;;5.60;;
47481;SDS011;33219;47.410;9.730;2023-02-24T01:26:17;12.20;;;5.60;;
47481;SDS011;33219;47.410;9.730;2023-02-24T01:28:45;11.07;;;4.67;;
47481;SDS011;33219;47.410;9.730;2023-02-24T01:31:14;9.80;;;4.90;;
47481;SDS011;33219;47.410;9.730;2023-02-24T01:33:44;8.08;;;5.10;;
47481;SDS011;33219;47.410;9.730;2023-02-24T01:36:16;10.93;;;5.20;;
47481;SDS011;33219;47.410;9.730;2023-02-24T01:38:50;8.20;;;4.37;;
47481;SDS011;33219;47.410;9.730;2023-02-24T01:41:20;12.53;;;4.60;;
47481;SDS011;33219;47.410;9.730;2023-02-24T01:46:31;8.13;;;4.13;;
47481;SDS011;33219;47.410;9.730;2023-02-24T01:49:02;8.93;;;3.87;;
47481;SDS011;33219;47.410;9.730;2023-02-24T01:51:33;11.97;;;4.37;;
47481;SDS011;33219;47.410;9.730;2023-02-24T01:54:02;9.00;;;4.80;;
47481;SDS011;33219;47.410;9.730;2023-02-24T01:56:32;12.10;;;5.10;;
47481;SDS011;33219;47.410;9.730;2023-02-24T01:59:00;10.70;;;5.80;;
47481;SDS011;33219;47.410;9.730;2023-02-24T02:01:28;14.00;;;6.17;;
47481;SDS011;33219;47.410;9.730;2023-02-24T02:03:59;12.47;;;6.83;;
47481;SDS011;33219;47.410;9.730;2023-02-24T02:06:28;10.13;;;5.67;;
47481;SDS011;33219;47.410;9.730;2023-02-24T02:08:57;9.47;;;5.80;;
47481;SDS011;33219;47.410;9.730;2023-02-24T02:11:26;10.47;;;5.50;;
47481;SDS011;33219;47.410;9.730;2023-02-24T02:13:53;10.93;;;5.63;;
47481;SDS011;33219;47.410;9.730;2023-02-24T02:16:24;12.23;;;5.63;;
47481;SDS011;33219;47.410;9.730;2023-02-24T02:22:07;10.87;;;5.73;;
47481;SDS011;33219;47.410;9.730;2023-02-24T02:24:58;10.58;;;5.55;;
47481;SDS011;33219;47.410;9.730;2023-02-24T02:27:34;14.20;;;6.93;;
47481;SDS011;33219;47.410;9.730;2023-02-24T02:30:26;15.17;;;7.60;;
47481;SDS011;33219;47.410;9.730;2023-02-24T02:36:02;11.73;;;6.77;;
47481;SDS011;33219;47.410;9.730;2023-02-24T02:38:36;13.90;;;7.77;;
47481;SDS011;33219;47.410;9.730;2023-02-24T02:44:34;18.13;;;9.20;;
47481;SDS011;33219;47.410;9.730;2023-02-24T02:47:00;19.03;;;8.57;;
47481;SDS011;33219;47.410;9.730;2023-02-24T02:49:41;13.43;;;8.93;;
47481;SDS011;33219;47.410;9.730;2023-02-24T02:52:18;16.97;;;9.13;;
47481;SDS011;33219;47.410;9.730;2023-02-24T02:54:52;17.53;;;8.77;;
47481;SDS011;33219;47.410;9.730;2023-02-24T02:57:23;16.40;;;9.67;;
47481;SDS011;33219;47.410;9.730;2023-02-24T03:00:03;15.50;;;8.57;;
47481;SDS011;33219;47.410;9.730;2023-02-24T03:02:30;14.80;;;8.03;;
47481;SDS011;33219;47.410;9.730;2023-02-24T03:05:01;18.77;;;8.53;;
47481;SDS011;33219;47.410;9.730;2023-02-24T03:07:32;16.93;;;8.43;;
47481;SDS011;33219;47.410;9.730;2023-02-24T03:10:05;17.20;;;7.50;;
47481;SDS011;33219;47.410;9.730;2023-02-24T03:12:39;14.63;;;6.90;;
47481;SDS011;33219;47.410;9.730;2023-02-24T03:15:08;12.43;;;6.73;;
47481;SDS011;33219;47.410;9.730;2023-02-24T03:17:41;15.17;;;6.27;;
47481;SDS011;33219;47.410;9.730;2023-02-24T03:20:23;10.23;;;4.13;;
47481;SDS011;33219;47.410;9.730;2023-02-24T03:23:00;7.97;;;4.33;;
47481;SDS011;33219;47.410;9.730;2023-02-24T03:25:35;12.33;;;4.23;;
47481;SDS011;33219;47.410;9.730;2023-02-24T03:28:10;9.43;;;3.60;;
47481;SDS011;33219;47.410;9.730;2023-02-24T03:30:39;7.83;;;3.60;;
47481;SDS011;33219;47.410;9.730;2023-02-24T03:33:20;10.47;;;5.10;;
47481;SDS011;33219;47.410;9.730;2023-02-24T03:38:18;8.10;;;3.67;;
47481;SDS011;33219;47.410;9.730;2023-02-24T03:40:47;9.53;;;3.67;;
47481;SDS011;33219;47.410;9.730;2023-02-24T03:43:27;8.63;;;3.77;;
47481;SDS011;33219;47.410;9.730;2023-02-24T03:45:55;6.27;;;3.50;;
47481;SDS011;33219;47.410;9.730;2023-02-24T03:48:26;9.43;;;4.07;;
47481;SDS011;33219;47.410;9.730;2023-02-24T03:50:54;9.00;;;3.73;;
47481;SDS011;33219;47.410;9.730;2023-02-24T03:53:27;7.03;;;3.80;;
47481;SDS011;33219;47.410;9.730;2023-02-24T04:12:27;14.43;;;5.30;;
47481;SDS011;33219;47.410;9.730;2023-02-24T04:15:16;10.43;;;4.90;;
47481;SDS011;33219;47.410;9.730;2023-02-24T04:17:55;12.65;;;4.45;;
47481;SDS011;33219;47.410;9.730;2023-02-24T04:23:01;11.23;;;4.53;;
47481;SDS011;33219;47.410;9.730;2023-02-24T04:25:26;9.13;;;4.30;;
47481;SDS011;33219;47.410;9.730;2023-02-24T04:27:57;7.83;;;4.63;;
47481;SDS011;33219;47.410;9.730;2023-02-24T04:30:28;12.47;;;5.47;;
47481;SDS011;33219;47.410;9.730;2023-02-24T04:32:56;10.70;;;5.67;;
47481;SDS011;33219;47.410;9.730;2023-02-24T04:35:25;12.80;;;5.00;;
47481;SDS011;33219;47.410;9.730;2023-02-24T04:37:53;9.57;;;5.23;;
47481;SDS011;33219;47.410;9.730;2023-02-24T04:40:21;10.67;;;5.50;;
47481;SDS011;33219;47.410;9.730;2023-02-24T04:42:49;9.43;;;4.70;;
47481;SDS011;33219;47.410;9.730;2023-02-24T04:45:19;9.13;;;4.90;;
47481;SDS011;33219;47.410;9.730;2023-02-24T04:47:49;9.83;;;4.57;;
47481;SDS011;33219;47.410;9.730;2023-02-24T04:50:20;14.83;;;6.00;;
47481;SDS011;33219;47.410;9.730;2023-02-24T04:52:51;8.97;;;5.27;;
47481;SDS011;33219;47.410;9.730;2023-02-24T04:55:22;12.07;;;5.63;;
47481;SDS011;33219;47.410;9.730;2023-02-24T04:57:52;9.30;;;4.70;;
47481;SDS011;33219;47.410;9.730;2023-02-24T05:00:20;15.20;;;5.33;;
47481;SDS011;33219;47.410;9.730;2023-02-24T05:02:50;11.83;;;6.23;;
47481;SDS011;33219;47.410;9.730;2023-02-24T05:05:21;12.50;;;5.93;;
47481;SDS011;33219;47.410;9.730;2023-02-24T05:07:54;11.80;;;5.70;;
47481;SDS011;33219;47.410;9.730;2023-02-24T05:10:28;11.17;;;6.37;;
47481;SDS011;33219;47.410;9.730;2023-02-24T05:12:58;13.83;;;7.47;;
47481;SDS011;33219;47.410;9.730;2023-02-24T05:15:27;12.40;;;7.13;;
47481;SDS011;33219;47.410;9.730;2023-02-24T05:18:01;12.80;;;8.70;;
47481;SDS011;33219;47.410;9.730;2023-02-24T05:20:40;14.90;;;8.30;;
47481;SDS011;33219;47.410;9.730;2023-02-24T05:23:12;16.50;;;8.93;;
47481;SDS011;33219;47.410;9.730;2023-02-24T05:25:41;18.43;;;9.70;;
47481;SDS011;33219;47.410;9.730;2023-02-24T05:28:09;22.20;;;10.07;;
47481;SDS011;33219;47.410;9.730;2023-02-24T05:30:36;17.73;;;10.80;;
47481;SDS011;33219;47.410;9.730;2023-02-24T05:33:04;17.37;;;9.83;;
47481;SDS011;33219;47.410;9.730;2023-02-24T05:35:34;15.73;;;9.83;;
47481;SDS011;33219;47.410;9.730;2023-02-24T05:38:02;17.80;;;9.57;;
47481;SDS011;33219;47.410;9.730;2023-02-24T05:40:31;14.13;;;8.73;;
47481;SDS011;33219;47.410;9.730;2023-02-24T05:42:59;13.60;;;8.57;;
47481;SDS011;33219;47.410;9.730;2023-02-24T05:45:29;17.33;;;9.47;;
47481;SDS011;33219;47.410;9.730;2023-02-24T05:47:56;18.17;;;9.10;;
47481;SDS011;33219;47.410;9.730;2023-02-24T05:50:24;20.60;;;10.07;;
47481;SDS011;33219;47.410;9.730;2023-02-24T05:52:52;20.57;;;12.00;;
47481;SDS011;33219;47.410;9.730;2023-02-24T05:55:20;19.97;;;11.23;;
47481;SDS011;33219;47.410;9.730;2023-02-24T05:57:48;20.00;;;10.80;;
47481;SDS011;33219;47.410;9.730;2023-02-24T06:00:18;19.07;;;9.77;;
47481;SDS011;33219;47.410;9.730;2023-02-24T06:02:47;19.87;;;10.27;;
47481;SDS011;33219;47.410;9.730;2023-02-24T06:05:16;19.87;;;10.87;;
47481;SDS011;33219;47.410;9.730;2023-02-24T06:07:57;23.33;;;12.87;;
47481;SDS011;33219;47.410;9.730;2023-02-24T06:10:26;26.50;;;14.70;;
47481;SDS011;33219;47.410;9.730;2023-02-24T06:12:56;24.83;;;12.97;;
47481;SDS011;33219;47.410;9.730;2023-02-24T06:15:25;24.57;;;15.47;;
47481;SDS011;33219;47.410;9.730;2023-02-24T06:17:53;23.17;;;13.30;;
47481;SDS011;33219;47.410;9.730;2023-02-24T06:20:23;26.60;;;15.10;;
47481;SDS011;33219;47.410;9.730;2023-02-24T06:22:56;27.80;;;16.67;;
47481;SDS011;33219;47.410;9.730;2023-02-24T06:25:24;18.50;;;10.08;;
47481;SDS011;33219;47.410;9.730;2023-02-24T06:27:54;26.87;;;13.87;;
47481;SDS011;33219;47.410;9.730;2023-02-24T06:30:32;20.97;;;11.97;;
47481;SDS011;33219;47.410;9.730;2023-02-24T06:33:02;21.77;;;11.30;;
47481;SDS011;33219;47.410;9.730;2023-02-24T06:35:31;21.10;;;10.50;;
47481;SDS011;33219;47.410;9.730;2023-02-24T06:37:59;26.13;;;12.20;;
47481;SDS011;33219;47.410;9.730;2023-02-24T06:40:29;18.63;;;11.00;;
47481;SDS011;33219;47.410;9.730;2023-02-24T06:43:07;19.20;;;9.10;;
47481;SDS011;33219;47.410;9.730;2023-02-24T06:45:34;13.88;;;7.25;;
47481;SDS011;33219;47.410;9.730;2023-02-24T06:48:10;17.53;;;8.43;;
47481;SDS011;33219;47.410;9.730;2023-02-24T06:50:48;14.50;;;7.97;;
47481;SDS011;33219;47.410;9.730;2023-02-24T06:56:04;21.47;;;12.13;;
47481;SDS011;33219;47.410;9.730;2023-02-24T06:58:36;24.23;;;12.57;;
47481;SDS011;33219;47.410;9.730;2023-02-24T07:01:09;21.95;;;12.82;;
47481;SDS011;33219;47.410;9.730;2023-02-24T07:03:38;22.95;;;12.75;;
47481;SDS011;33219;47.410;9.730;2023-02-24T07:06:17;21.00;;;12.93;;
47481;SDS011;33219;47.410;9.730;2023-02-24T07:08:51;19.82;;;11.28;;
47481;SDS011;33219;47.410;9.730;2023-02-24T07:11:23;26.65;;;13.40;;
47481;SDS011;33219;47.410;9.730;2023-02-24T07:13:53;18.50;;;12.07;;
47481;SDS011;33219;47.410;9.730;2023-02-24T07:16:25;21.35;;;12.18;;
47481;SDS011;33219;47.410;9.730;2023-02-24T07:18:57;18.80;;;10.90;;
47481;SDS011;33219;47.410;9.730;2023-02-24T07:21:33;19.10;;;10.60;;
47481;SDS011;33219;47.410;9.730;2023-02-24T07:24:09;16.73;;;9.85;;
47481;SDS011;33219;47.410;9.730;2023-02-24T07:26:44;16.57;;;9.43;;
47481;SDS011;33219;47.410;9.730;2023-02-24T07:29:21;14.13;;;8.73;;
47481;SDS011;33219;47.410;9.730;2023-02-24T07:31:51;17.37;;;9.63;;
47481;SDS011;33219;47.410;9.730;2023-02-24T07:34:22;18.07;;;10.25;;
47481;SDS011;33219;47.410;9.730;2023-02-24T07:36:56;17.50;;;11.00;;
47481;SDS011;33219;47.410;9.730;2023-02-24T07:39:40;18.62;;;11.00;;
47481;SDS011;33219;47.410;9.730;2023-02-24T07:44:49;19.52;;;11.30;;
47481;SDS011;33219;47.410;9.730;2023-02-24T07:47:20;19.27;;;12.23;;
47481;SDS011;33219;47.410;9.730;2023-02-24T08:14:42;15.03;;;7.97;;
47481;SDS011;33219;47.410;9.730;2023-02-24T08:17:22;14.93;;;8.05;;
47481;SDS011;33219;47.410;9.730;2023-02-24T08:20:02;12.63;;;7.70;;
47481;SDS011;33219;47.410;9.730;2023-02-24T08:22:59;15.00;;;8.13;;
47481;SDS011;33219;47.410;9.730;2023-02-24T08:25:33;14.75;;;9.00;;
47481;SDS011;33219;47.410;9.730;2023-02-24T09:21:52;18.48;;;10.70;;
47481;SDS011;33219;47.410;9.730;2023-02-24T09:24:35;17.90;;;11.30;;
47481;SDS011;33219;47.410;9.730;2023-02-24T09:27:11;18.70;;;10.70;;
47481;SDS011;33219;47.410;9.730;2023-02-24T09:32:23;15.85;;;10.93;;
47481;SDS011;33219;47.410;9.730;2023-02-24T09:34:53;17.77;;;9.00;;
47481;SDS011;33219;47.410;9.730;2023-02-24T09:37:24;14.70;;;8.13;;
47481;SDS011;33219;47.410;9.730;2023-02-24T09:39:55;11.53;;;7.60;;
47481;SDS011;33219;47.410;9.730;2023-02-24T09:42:33;11.83;;;7.40;;
47481;SDS011;33219;47.410;9.730;2023-02-24T09:45:21;13.70;;;7.53;;
47481;SDS011;33219;47.410;9.730;2023-02-24T09:47:53;13.22;;;7.78;;
47481;SDS011;33219;47.410;9.730;2023-02-24T10:17:53;13.55;;;7.50;;
47481;SDS011;33219;47.410;9.730;2023-02-24T10:20:40;12.85;;;7.70;;
47481;SDS011;33219;47.410;9.730;2023-02-24T10:26:25;13.05;;;7.55;;
47481;SDS011;33219;47.410;9.730;2023-02-24T10:29:24;11.35;;;7.30;;
47481;SDS011;33219;47.410;9.730;2023-02-24T10:31:59;14.13;;;8.55;;
47481;SDS011;33219;47.410;9.730;2023-02-24T10:34:36;12.80;;;8.30;;
47481;SDS011;33219;47.410;9.730;2023-02-24T10:37:13;14.05;;;7.45;;
47481;SDS011;33219;47.410;9.730;2023-02-24T10:39:45;16.73;;;7.85;;
47481;SDS011;33219;47.410;9.730;2023-02-24T10:42:30;16.00;;;8.23;;
47481;SDS011;33219;47.410;9.730;2023-02-24T10:45:14;12.37;;;7.33;;
47481;SDS011;33219;47.410;9.730;2023-02-24T10:53:40;16.27;;;9.80;;
47481;SDS011;33219;47.410;9.730;2023-02-24T10:56:15;16.00;;;9.33;;
47481;SDS011;33219;47.410;9.730;2023-02-24T10:59:08;16.27;;;9.13;;
47481;SDS011;33219;47.410;9.730;2023-02-24T11:01:52;15.00;;;9.20;;
47481;SDS011;33219;47.410;9.730;2023-02-24T11:07:26;13.43;;;7.47;;
47481;SDS011;33219;47.410;9.730;2023-02-24T11:10:18;12.60;;;7.67;;
47481;SDS011;33219;47.410;9.730;2023-02-24T11:12:54;15.50;;;7.97;;
47481;SDS011;33219;47.410;9.730;2023-02-24T11:15:52;13.65;;;7.78;;
47481;SDS011;33219;47.410;9.730;2023-02-24T11:18:37;9.35;;;6.60;;
47481;SDS011;33219;47.410;9.730;2023-02-24T11:21:22;11.57;;;7.58;;
47481;SDS011;33219;47.410;9.730;2023-02-24T11:23:58;13.68;;;7.87;;
47481;SDS011;33219;47.410;9.730;2023-02-24T11:39:48;19.50;;;11.55;;
47481;SDS011;33219;47.410;9.730;2023-02-24T11:42:32;17.37;;;10.98;;
47481;SDS011;33219;47.410;9.730;2023-02-24T11:50:39;17.48;;;12.45;;
47481;SDS011;33219;47.410;9.730;2023-02-24T11:55:53;21.25;;;13.13;;
47481;SDS011;33219;47.410;9.730;2023-02-24T11:58:43;18.15;;;12.03;;
47481;SDS011;33219;47.410;9.730;2023-02-24T12:03:55;16.17;;;11.50;;
47481;SDS011;33219;47.410;9.730;2023-02-24T12:06:29;18.23;;;12.07;;
47481;SDS011;33219;47.410;9.730;2023-02-24T12:09:24;19.35;;;12.93;;
47481;SDS011;33219;47.410;9.730;2023-02-24T12:11:43;19.52;;;12.55;;
47481;SDS011;33219;47.410;9.730;2023-02-24T12:14:32;16.02;;;12.53;;
47481;SDS011;33219;47.410;9.730;2023-02-24T12:19:57;17.75;;;12.18;;
47481;SDS011;33219;47.410;9.730;2023-02-24T12:22:31;19.70;;;12.50;;
47481;SDS011;33219;47.410;9.730;2023-02-24T12:24:59;18.12;;;12.43;;
47481;SDS011;33219;47.410;9.730;2023-02-24T12:27:45;20.15;;;12.78;;
47481;SDS011;33219;47.410;9.730;2023-02-24T12:30:32;22.25;;;12.90;;
47481;SDS011;33219;47.410;9.730;2023-02-24T12:33:21;22.10;;;13.00;;
47481;SDS011;33219;47.410;9.730;2023-02-24T12:44:21;19.62;;;12.15;;
47481;SDS011;33219;47.410;9.730;2023-02-24T12:47:07;20.55;;;11.80;;
47481;SDS011;33219;47.410;9.730;2023-02-24T12:49:50;19.37;;;11.75;;
47481;SDS011;33219;47.410;9.730;2023-02-24T13:00:29;18.85;;;10.93;;
47481;SDS011;33219;47.410;9.730;2023-02-24T13:03:24;16.60;;;11.20;;
47481;SDS011;33219;47.410;9.730;2023-02-24T13:08:58;16.52;;;9.63;;
47481;SDS011;33219;47.410;9.730;2023-02-24T13:16:47;17.42;;;12.00;;
47481;SDS011;33219;47.410;9.730;2023-02-24T13:21:55;18.17;;;12.23;;
47481;SDS011;33219;47.410;9.730;2023-02-24T13:24:27;17.12;;;11.48;;
47481;SDS011;33219;47.410;9.730;2023-02-24T13:29:58;20.23;;;12.40;;
47481;SDS011;33219;47.410;9.730;2023-02-24T13:32:40;21.12;;;12.90;;
47481;SDS011;33219;47.410;9.730;2023-02-24T13:37:45;18.98;;;12.95;;
47481;SDS011;33219;47.410;9.730;2023-02-24T13:42:56;21.73;;;12.93;;
47481;SDS011;33219;47.410;9.730;2023-02-24T13:45:36;21.82;;;15.53;;
47481;SDS011;33219;47.410;9.730;2023-02-24T13:57:02;37.05;;;22.17;;
47481;SDS011;33219;47.410;9.730;2023-02-24T14:02:46;38.85;;;25.15;;
47481;SDS011;33219;47.410;9.730;2023-02-24T14:07:54;44.25;;;25.50;;
47481;SDS011;33219;47.410;9.730;2023-02-24T14:10:25;39.48;;;25.17;;
47481;SDS011;33219;47.410;9.730;2023-02-24T14:12:58;40.15;;;26.68;;
47481;SDS011;33219;47.410;9.730;2023-02-24T14:15:26;43.55;;;26.75;;
47481;SDS011;33219;47.410;9.730;2023-02-24T14:17:55;41.08;;;26.07;;
47481;SDS011;33219;47.410;9.730;2023-02-24T14:20:25;43.55;;;27.40;;
47481;SDS011;33219;47.410;9.730;2023-02-24T14:22:55;39.65;;;23.45;;
47481;SDS011;33219;47.410;9.730;2023-02-24T14:25:29;37.98;;;25.52;;
47481;SDS011;33219;47.410;9.730;2023-02-24T14:27:55;34.88;;;23.40;;
47481;SDS011;33219;47.410;9.730;2023-02-24T14:30:26;36.65;;;20.60;;
47481;SDS011;33219;47.410;9.730;2023-02-24T14:33:03;32.30;;;18.55;;
47481;SDS011;33219;47.410;9.730;2023-02-24T14:35:36;31.35;;;19.17;;
47481;SDS011;33219;47.410;9.730;2023-02-24T14:38:03;33.13;;;19.92;;
47481;SDS011;33219;47.410;9.730;2023-02-24T14:40:31;32.23;;;19.20;;
47481;SDS011;33219;47.410;9.730;2023-02-24T14:43:01;28.92;;;18.48;;
47481;SDS011;33219;47.410;9.730;2023-02-24T14:45:29;28.15;;;17.90;;
47481;SDS011;33219;47.410;9.730;2023-02-24T14:47:56;24.20;;;14.63;;
47481;SDS011;33219;47.410;9.730;2023-02-24T14:50:26;24.27;;;14.13;;
47481;SDS011;33219;47.410;9.730;2023-02-24T14:53:02;30.20;;;15.38;;
47481;SDS011;33219;47.410;9.730;2023-02-24T14:55:36;28.38;;;15.30;;
47481;SDS011;33219;47.410;9.730;2023-02-24T14:58:14;23.27;;;14.23;;
47481;SDS011;33219;47.410;9.730;2023-02-24T15:03:19;21.65;;;12.88;;
47481;SDS011;33219;47.410;9.730;2023-02-24T15:05:51;25.57;;;13.68;;
47481;SDS011;33219;47.410;9.730;2023-02-24T15:08:29;26.35;;;13.25;;
47481;SDS011;33219;47.410;9.730;2023-02-24T15:10:58;23.12;;;13.08;;
47481;SDS011;33219;47.410;9.730;2023-02-24T15:13:29;24.18;;;13.08;;
47481;SDS011;33219;47.410;9.730;2023-02-24T15:16:05;22.07;;;12.15;;
47481;SDS011;33219;47.410;9.730;2023-02-24T15:18:37;25.27;;;11.75;;
47481;SDS011;33219;47.410;9.730;2023-02-24T15:21:06;28.57;;;13.35;;
47481;SDS011;33219;47.410;9.730;2023-02-24T15:23:37;25.50;;;14.45;;
47481;SDS011;33219;47.410;9.730;2023-02-24T15:26:05;21.12;;;12.43;;
47481;SDS011;33219;47.410;9.730;2023-02-24T15:28:36;24.80;;;10.82;;
47481;SDS011;33219;47.410;9.730;2023-02-24T15:31:07;17.70;;;10.65;;
47481;SDS011;33219;47.410;9.730;2023-02-24T15:33:44;20.45;;;11.10;;
47481;SDS011;33219;47.410;9.730;2023-02-24T15:36:17;32.63;;;14.10;;
47481;SDS011;33219;47.410;9.730;2023-02-24T15:38:50;29.65;;;14.68;;
47481;SDS011;33219;47.410;9.730;2023-02-24T15:41:18;24.98;;;12.47;;
47481;SDS011;33219;47.410;9.730;2023-02-24T15:43:47;20.43;;;10.68;;
47481;SDS011;33219;47.410;9.730;2023-02-24T15:48:48;24.80;;;11.63;;
47481;SDS011;33219;47.410;9.730;2023-02-24T15:53:53;22.22;;;11.70;;
47481;SDS011;33219;47.410;9.730;2023-02-24T15:56:21;21.80;;;11.33;;
47481;SDS011;33219;47.410;9.730;2023-02-24T15:58:49;22.95;;;11.75;;
47481;SDS011;33219;47.410;9.730;2023-02-24T16:01:17;25.77;;;12.35;;
47481;SDS011;33219;47.410;9.730;2023-02-24T16:03:47;26.40;;;11.88;;
47481;SDS011;33219;47.410;9.730;2023-02-24T16:06:17;21.68;;;8.88;;
47481;SDS011;33219;47.410;9.730;2023-02-24T16:08:47;22.80;;;9.43;;
47481;SDS011;33219;47.410;9.730;2023-02-24T16:11:18;19.73;;;9.05;;
47481;SDS011;33219;47.410;9.730;2023-02-24T16:13:51;24.60;;;9.53;;
47481;SDS011;33219;47.410;9.730;2023-02-24T16:16:21;23.30;;;10.58;;
47481;SDS011;33219;47.410;9.730;2023-02-24T16:18:49;23.05;;;9.85;;
47481;SDS011;33219;47.410;9.730;2023-02-24T16:21:17;23.85;;;10.00;;
47481;SDS011;33219;47.410;9.730;2023-02-24T16:23:45;29.02;;;10.63;;
47481;SDS011;33219;47.410;9.730;2023-02-24T16:26:14;27.02;;;10.63;;
47481;SDS011;33219;47.410;9.730;2023-02-24T16:28:45;24.45;;;10.85;;
47481;SDS011;33219;47.410;9.730;2023-02-24T16:31:14;24.40;;;12.68;;
47481;SDS011;33219;47.410;9.730;2023-02-24T16:33:42;23.27;;;12.90;;
47481;SDS011;33219;47.410;9.730;2023-02-24T16:36:13;25.92;;;12.90;;
47481;SDS011;33219;47.410;9.730;2023-02-24T16:38:41;22.67;;;12.85;;
47481;SDS011;33219;47.410;9.730;2023-02-24T16:41:16;27.98;;;15.23;;
47481;SDS011;33219;47.410;9.730;2023-02-24T16:43:41;21.07;;;14.15;;
47481;SDS011;33219;47.410;9.730;2023-02-24T16:46:12;25.92;;;14.73;;
47481;SDS011;33219;47.410;9.730;2023-02-24T16:48:40;25.70;;;15.10;;
47481;SDS011;33219;47.410;9.730;2023-02-24T16:51:10;24.18;;;14.30;;
47481;SDS011;33219;47.410;9.730;2023-02-24T16:53:39;22.75;;;14.25;;
47481;SDS011;33219;47.410;9.730;2023-02-24T16:56:08;25.25;;;14.10;;
47481;SDS011;33219;47.410;9.730;2023-02-24T16:58:36;25.23;;;13.40;;
47481;SDS011;33219;47.410;9.730;2023-02-24T17:01:05;25.62;;;14.25;;
47481;SDS011;33219;47.410;9.730;2023-02-24T17:03:40;21.95;;;12.88;;
47481;SDS011;33219;47.410;9.730;2023-02-24T17:06:10;28.07;;;15.32;;
47481;SDS011;33219;47.410;9.730;2023-02-24T17:08:38;25.05;;;15.20;;
47481;SDS011;33219;47.410;9.730;2023-02-24T17:11:15;26.97;;;15.35;;
47481;SDS011;33219;47.410;9.730;2023-02-24T17:13:40;25.45;;;14.68;;
47481;SDS011;33219;47.410;9.730;2023-02-24T17:16:08;25.82;;;14.23;;
47481;SDS011;33219;47.410;9.730;2023-02-24T17:18:37;20.48;;;12.70;;
47481;SDS011;33219;47.410;9.730;2023-02-24T17:21:05;25.45;;;14.63;;
47481;SDS011;33219;47.410;9.730;2023-02-24T17:23:33;30.25;;;17.52;;
47481;SDS011;33219;47.410;9.730;2023-02-24T17:26:01;27.67;;;17.73;;
47481;SDS011;33219;47.410;9.730;2023-02-24T17:28:29;30.05;;;17.25;;
47481;SDS011;33219;47.410;9.730;2023-02-24T17:30:57;31.50;;;17.55;;
47481;SDS011;33219;47.410;9.730;2023-02-24T17:33:25;31.23;;;17.50;;
47481;SDS011;33219;47.410;9.730;2023-02-24T17:35:53;32.33;;;19.50;;
47481;SDS011;33219;47.410;9.730;2023-02-24T17:38:21;31.77;;;19.75;;
47481;SDS011;33219;47.410;9.730;2023-02-24T17:40:49;32.70;;;18.40;;
47481;SDS011;33219;47.410;9.730;2023-02-24T17:43:17;34.00;;;19.67;;
47481;SDS011;33219;47.410;9.730;2023-02-24T17:45:45;33.45;;;19.00;;
47481;SDS011;33219;47.410;9.730;2023-02-24T17:48:13;30.37;;;18.02;;
47481;SDS011;33219;47.410;9.730;2023-02-24T17:50:47;28.32;;;18.48;;
47481;SDS011;33219;47.410;9.730;2023-02-24T17:53:11;28.77;;;18.23;;
47481;SDS011;33219;47.410;9.730;2023-02-24T17:55:40;28.65;;;18.90;;
47481;SDS011;33219;47.410;9.730;2023-02-24T17:58:08;31.60;;;18.57;;
47481;SDS011;33219;47.410;9.730;2023-02-24T18:00:36;34.23;;;21.48;;
47481;SDS011;33219;47.410;9.730;2023-02-24T18:03:04;38.00;;;23.02;;
47481;SDS011;33219;47.410;9.730;2023-02-24T18:05:31;38.38;;;21.25;;
47481;SDS011;33219;47.410;9.730;2023-02-24T18:08:01;37.53;;;22.13;;
47481;SDS011;33219;47.410;9.730;2023-02-24T18:10:28;37.33;;;23.25;;
47481;SDS011;33219;47.410;9.730;2023-02-24T18:12:56;38.85;;;21.37;;
47481;SDS011;33219;47.410;9.730;2023-02-24T18:15:26;34.25;;;20.00;;
47481;SDS011;33219;47.410;9.730;2023-02-24T18:17:53;23.35;;;12.53;;
47481;SDS011;33219;47.410;9.730;2023-02-24T18:20:23;12.23;;;6.70;;
47481;SDS011;33219;47.410;9.730;2023-02-24T18:22:53;14.58;;;6.95;;
47481;SDS011;33219;47.410;9.730;2023-02-24T18:25:20;16.65;;;6.90;;
47481;SDS011;33219;47.410;9.730;2023-02-24T18:27:48;11.95;;;6.65;;
47481;SDS011;33219;47.410;9.730;2023-02-24T18:30:16;10.63;;;4.70;;
47481;SDS011;33219;47.410;9.730;2023-02-24T18:32:44;8.75;;;4.45;;
47481;SDS011;33219;47.410;9.730;2023-02-24T18:35:12;9.33;;;4.25;;
47481;SDS011;33219;47.410;9.730;2023-02-24T18:37:40;11.00;;;4.05;;
47481;SDS011;33219;47.410;9.730;2023-02-24T18:40:09;6.65;;;3.35;;
47481;SDS011;33219;47.410;9.730;2023-02-24T18:42:37;10.48;;;3.92;;
47481;SDS011;33219;47.410;9.730;2023-02-24T18:45:07;9.70;;;4.03;;
47481;SDS011;33219;47.410;9.730;2023-02-24T18:47:35;13.53;;;5.17;;
47481;SDS011;33219;47.410;9.730;2023-02-24T18:50:03;8.93;;;4.35;;
47481;SDS011;33219;47.410;9.730;2023-02-24T18:52:31;11.88;;;4.30;;
47481;SDS011;33219;47.410;9.730;2023-02-24T18:55:01;8.95;;;3.92;;
47481;SDS011;33219;47.410;9.730;2023-02-24T18:57:29;9.68;;;4.20;;
47481;SDS011;33219;47.410;9.730;2023-02-24T18:59:58;8.95;;;4.12;;
47481;SDS011;33219;47.410;9.730;2023-02-24T19:02:26;9.45;;;3.70;;
47481;SDS011;33219;47.410;9.730;2023-02-24T19:04:54;7.25;;;2.80;;